sensor_id;sensor_type;location;lat;lon;timestamp;P1;durP1;ratioP1;P2;durP2;ratioP2
16979;SDS011;42288;52.182;21.156;2023-02-15T00:01:34;57.80;;;27.20;;
16979;SDS011;42288;52.182;21.156;2023-02-15T00:04:00;52.67;;;26.10;;
16979;SDS011;42288;52.182;21.156;2023-02-15T00:06:26;58.10;;;27.90;;
16979;SDS011;42288;52.182;21.156;2023-02-15T00:08:53;51.60;;;25.77;;
16979;SDS011;42288;52.182;21.156;2023-02-15T00:11:19;48.63;;;24.70;;
16979;SDS011;42288;52.182;21.156;2023-02-15T00:14:08;55.27;;;26.93;;
16979;SDS011;42288;52.182;21.156;2023-02-15T00:16:35;50.03;;;25.97;;
16979;SDS011;42288;52.182;21.156;2023-02-15T00:19:02;50.37;;;27.27;;
16979;SDS011;42288;52.182;21.156;2023-02-15T00:21:28;44.63;;;22.93;;
16979;SDS011;42288;52.182;21.156;2023-02-15T00:23:55;54.30;;;26.23;;
16979;SDS011;42288;52.182;21.156;2023-02-15T00:26:22;52.63;;;26.93;;
16979;SDS011;42288;52.182;21.156;2023-02-15T00:28:48;43.97;;;23.60;;
16979;SDS011;42288;52.182;21.156;2023-02-15T00:31:14;45.77;;;24.33;;
16979;SDS011;42288;52.182;21.156;2023-02-15T00:33:39;52.40;;;25.77;;
16979;SDS011;42288;52.182;21.156;2023-02-15T00:36:06;45.57;;;23.10;;
16979;SDS011;42288;52.182;21.156;2023-02-15T00:38:33;48.63;;;23.50;;
16979;SDS011;42288;52.182;21.156;2023-02-15T00:41:00;40.13;;;20.47;;
16979;SDS011;42288;52.182;21.156;2023-02-15T00:43:28;38.83;;;20.53;;
16979;SDS011;42288;52.182;21.156;2023-02-15T00:45:54;40.87;;;22.33;;
16979;SDS011;42288;52.182;21.156;2023-02-15T00:48:20;38.67;;;21.27;;
16979;SDS011;42288;52.182;21.156;2023-02-15T00:50:49;42.33;;;21.60;;
16979;SDS011;42288;52.182;21.156;2023-02-15T00:53:18;47.07;;;22.97;;
16979;SDS011;42288;52.182;21.156;2023-02-15T00:55:43;38.33;;;19.87;;
16979;SDS011;42288;52.182;21.156;2023-02-15T00:58:09;43.23;;;22.07;;
16979;SDS011;42288;52.182;21.156;2023-02-15T01:00:37;40.97;;;22.17;;
16979;SDS011;42288;52.182;21.156;2023-02-15T01:03:03;39.40;;;21.30;;
16979;SDS011;42288;52.182;21.156;2023-02-15T01:05:29;42.90;;;21.00;;
16979;SDS011;42288;52.182;21.156;2023-02-15T01:07:56;40.40;;;20.23;;
16979;SDS011;42288;52.182;21.156;2023-02-15T01:10:22;37.80;;;19.83;;
16979;SDS011;42288;52.182;21.156;2023-02-15T01:12:47;47.10;;;22.07;;
16979;SDS011;42288;52.182;21.156;2023-02-15T01:15:14;43.17;;;21.03;;
16979;SDS011;42288;52.182;21.156;2023-02-15T01:17:40;44.80;;;21.53;;
16979;SDS011;42288;52.182;21.156;2023-02-15T01:20:05;40.03;;;19.07;;
16979;SDS011;42288;52.182;21.156;2023-02-15T01:22:32;40.17;;;19.50;;
16979;SDS011;42288;52.182;21.156;2023-02-15T01:24:57;40.97;;;20.33;;
16979;SDS011;42288;52.182;21.156;2023-02-15T01:27:23;41.37;;;18.70;;
16979;SDS011;42288;52.182;21.156;2023-02-15T01:29:49;43.23;;;19.57;;
16979;SDS011;42288;52.182;21.156;2023-02-15T01:32:14;39.17;;;18.00;;
16979;SDS011;42288;52.182;21.156;2023-02-15T01:34:40;43.13;;;20.70;;
16979;SDS011;42288;52.182;21.156;2023-02-15T01:37:05;39.07;;;19.30;;
16979;SDS011;42288;52.182;21.156;2023-02-15T01:39:31;37.00;;;19.60;;
16979;SDS011;42288;52.182;21.156;2023-02-15T01:41:56;39.03;;;18.40;;
16979;SDS011;42288;52.182;21.156;2023-02-15T01:47:18;35.40;;;20.17;;
16979;SDS011;42288;52.182;21.156;2023-02-15T01:49:48;39.23;;;20.57;;
16979;SDS011;42288;52.182;21.156;2023-02-15T01:52:24;40.27;;;22.07;;
16979;SDS011;42288;52.182;21.156;2023-02-15T01:54:50;45.30;;;21.73;;
16979;SDS011;42288;52.182;21.156;2023-02-15T01:57:16;41.80;;;21.33;;
16979;SDS011;42288;52.182;21.156;2023-02-15T01:59:47;38.53;;;18.70;;
16979;SDS011;42288;52.182;21.156;2023-02-15T02:02:18;41.50;;;20.03;;
16979;SDS011;42288;52.182;21.156;2023-02-15T02:04:53;36.43;;;18.87;;
16979;SDS011;42288;52.182;21.156;2023-02-15T02:07:26;33.53;;;18.40;;
16979;SDS011;42288;52.182;21.156;2023-02-15T02:09:53;34.97;;;19.33;;
16979;SDS011;42288;52.182;21.156;2023-02-15T02:12:19;37.93;;;18.40;;
16979;SDS011;42288;52.182;21.156;2023-02-15T02:14:47;37.17;;;19.57;;
16979;SDS011;42288;52.182;21.156;2023-02-15T02:25:56;39.20;;;21.47;;
16979;SDS011;42288;52.182;21.156;2023-02-15T02:28:47;37.40;;;19.90;;
16979;SDS011;42288;52.182;21.156;2023-02-15T02:34:11;41.90;;;20.37;;
16979;SDS011;42288;52.182;21.156;2023-02-15T02:36:52;37.33;;;19.07;;
16979;SDS011;42288;52.182;21.156;2023-02-15T02:40:32;39.30;;;20.90;;
16979;SDS011;42288;52.182;21.156;2023-02-15T02:42:35;41.33;;;21.63;;
16979;SDS011;42288;52.182;21.156;2023-02-15T02:45:08;40.20;;;19.20;;
16979;SDS011;42288;52.182;21.156;2023-02-15T02:47:47;42.13;;;21.30;;
16979;SDS011;42288;52.182;21.156;2023-02-15T02:50:21;40.73;;;22.20;;
16979;SDS011;42288;52.182;21.156;2023-02-15T02:52:50;40.73;;;20.63;;
16979;SDS011;42288;52.182;21.156;2023-02-15T02:55:22;41.00;;;20.40;;
16979;SDS011;42288;52.182;21.156;2023-02-15T02:58:05;37.67;;;19.87;;
16979;SDS011;42288;52.182;21.156;2023-02-15T03:00:53;37.10;;;17.70;;
16979;SDS011;42288;52.182;21.156;2023-02-15T03:03:35;40.93;;;18.60;;
16979;SDS011;42288;52.182;21.156;2023-02-15T03:06:03;37.33;;;19.07;;
16979;SDS011;42288;52.182;21.156;2023-02-15T03:08:36;41.70;;;18.70;;
16979;SDS011;42288;52.182;21.156;2023-02-15T03:11:13;40.77;;;20.33;;
16979;SDS011;42288;52.182;21.156;2023-02-15T03:13:40;35.47;;;18.57;;
16979;SDS011;42288;52.182;21.156;2023-02-15T03:16:06;38.70;;;20.60;;
16979;SDS011;42288;52.182;21.156;2023-02-15T03:18:53;37.53;;;17.87;;
16979;SDS011;42288;52.182;21.156;2023-02-15T03:21:27;38.37;;;18.53;;
16979;SDS011;42288;52.182;21.156;2023-02-15T03:24:09;37.40;;;19.47;;
16979;SDS011;42288;52.182;21.156;2023-02-15T03:26:38;40.80;;;19.30;;
16979;SDS011;42288;52.182;21.156;2023-02-15T03:29:05;40.83;;;20.10;;
16979;SDS011;42288;52.182;21.156;2023-02-15T03:31:33;42.37;;;20.77;;
16979;SDS011;42288;52.182;21.156;2023-02-15T03:34:06;37.70;;;20.97;;
16979;SDS011;42288;52.182;21.156;2023-02-15T03:36:41;39.80;;;20.00;;
16979;SDS011;42288;52.182;21.156;2023-02-15T03:42:04;40.30;;;21.43;;
16979;SDS011;42288;52.182;21.156;2023-02-15T03:44:47;40.13;;;19.83;;
16979;SDS011;42288;52.182;21.156;2023-02-15T03:47:28;40.87;;;20.03;;
16979;SDS011;42288;52.182;21.156;2023-02-15T03:50:19;37.70;;;19.97;;
16979;SDS011;42288;52.182;21.156;2023-02-15T03:53:08;40.20;;;19.50;;
16979;SDS011;42288;52.182;21.156;2023-02-15T03:55:37;38.83;;;22.67;;
16979;SDS011;42288;52.182;21.156;2023-02-15T03:58:03;39.00;;;20.70;;
16979;SDS011;42288;52.182;21.156;2023-02-15T04:00:49;36.90;;;19.10;;
16979;SDS011;42288;52.182;21.156;2023-02-15T04:03:53;41.50;;;19.30;;
16979;SDS011;42288;52.182;21.156;2023-02-15T04:06:23;38.10;;;21.00;;
16979;SDS011;42288;52.182;21.156;2023-02-15T04:08:48;37.47;;;20.80;;
16979;SDS011;42288;52.182;21.156;2023-02-15T04:11:32;36.97;;;19.43;;
16979;SDS011;42288;52.182;21.156;2023-02-15T04:13:58;42.50;;;19.97;;
16979;SDS011;42288;52.182;21.156;2023-02-15T04:16:23;39.13;;;19.47;;
16979;SDS011;42288;52.182;21.156;2023-02-15T04:18:49;40.77;;;21.73;;
16979;SDS011;42288;52.182;21.156;2023-02-15T04:21:33;39.43;;;21.53;;
16979;SDS011;42288;52.182;21.156;2023-02-15T04:24:17;40.93;;;20.87;;
16979;SDS011;42288;52.182;21.156;2023-02-15T04:27:02;38.20;;;19.97;;
16979;SDS011;42288;52.182;21.156;2023-02-15T04:29:29;43.30;;;20.63;;
16979;SDS011;42288;52.182;21.156;2023-02-15T04:31:56;42.23;;;20.87;;
16979;SDS011;42288;52.182;21.156;2023-02-15T04:34:24;37.40;;;19.60;;
16979;SDS011;42288;52.182;21.156;2023-02-15T04:36:50;38.43;;;20.30;;
16979;SDS011;42288;52.182;21.156;2023-02-15T04:39:17;36.63;;;19.53;;
16979;SDS011;42288;52.182;21.156;2023-02-15T04:41:43;39.10;;;19.53;;
16979;SDS011;42288;52.182;21.156;2023-02-15T04:44:10;37.53;;;21.23;;
16979;SDS011;42288;52.182;21.156;2023-02-15T04:46:36;38.53;;;19.90;;
16979;SDS011;42288;52.182;21.156;2023-02-15T04:49:02;45.63;;;20.27;;
16979;SDS011;42288;52.182;21.156;2023-02-15T04:51:28;39.87;;;19.37;;
16979;SDS011;42288;52.182;21.156;2023-02-15T04:53:53;36.93;;;20.10;;
16979;SDS011;42288;52.182;21.156;2023-02-15T04:56:19;37.23;;;18.60;;
16979;SDS011;42288;52.182;21.156;2023-02-15T04:58:45;38.57;;;20.03;;
16979;SDS011;42288;52.182;21.156;2023-02-15T05:01:11;39.60;;;20.63;;
16979;SDS011;42288;52.182;21.156;2023-02-15T05:03:37;38.60;;;19.70;;
16979;SDS011;42288;52.182;21.156;2023-02-15T05:06:02;37.00;;;19.57;;
16979;SDS011;42288;52.182;21.156;2023-02-15T05:08:28;39.00;;;20.10;;
16979;SDS011;42288;52.182;21.156;2023-02-15T05:10:54;39.40;;;19.67;;
16979;SDS011;42288;52.182;21.156;2023-02-15T05:13:20;36.90;;;19.83;;
16979;SDS011;42288;52.182;21.156;2023-02-15T05:15:49;38.83;;;20.73;;
16979;SDS011;42288;52.182;21.156;2023-02-15T05:18:16;38.97;;;19.77;;
16979;SDS011;42288;52.182;21.156;2023-02-15T05:20:43;34.73;;;19.07;;
16979;SDS011;42288;52.182;21.156;2023-02-15T05:23:08;36.80;;;20.13;;
16979;SDS011;42288;52.182;21.156;2023-02-15T05:25:34;39.27;;;19.57;;
16979;SDS011;42288;52.182;21.156;2023-02-15T05:28:18;36.03;;;19.90;;
16979;SDS011;42288;52.182;21.156;2023-02-15T05:30:48;40.43;;;19.97;;
16979;SDS011;42288;52.182;21.156;2023-02-15T05:33:23;37.70;;;19.83;;
16979;SDS011;42288;52.182;21.156;2023-02-15T05:35:48;38.60;;;20.63;;
16979;SDS011;42288;52.182;21.156;2023-02-15T05:38:14;37.10;;;20.50;;
16979;SDS011;42288;52.182;21.156;2023-02-15T05:40:39;38.47;;;19.90;;
16979;SDS011;42288;52.182;21.156;2023-02-15T05:43:05;40.37;;;21.30;;
16979;SDS011;42288;52.182;21.156;2023-02-15T05:45:31;43.20;;;21.63;;
16979;SDS011;42288;52.182;21.156;2023-02-15T05:47:56;39.60;;;21.60;;
16979;SDS011;42288;52.182;21.156;2023-02-15T05:50:23;36.70;;;19.23;;
16979;SDS011;42288;52.182;21.156;2023-02-15T05:52:49;37.83;;;20.40;;
16979;SDS011;42288;52.182;21.156;2023-02-15T05:55:14;38.97;;;19.37;;
16979;SDS011;42288;52.182;21.156;2023-02-15T05:57:40;36.30;;;19.87;;
16979;SDS011;42288;52.182;21.156;2023-02-15T06:00:06;37.70;;;21.10;;
16979;SDS011;42288;52.182;21.156;2023-02-15T06:02:33;35.87;;;20.17;;
16979;SDS011;42288;52.182;21.156;2023-02-15T06:04:59;42.10;;;20.83;;
16979;SDS011;42288;52.182;21.156;2023-02-15T06:07:25;34.87;;;17.93;;
16979;SDS011;42288;52.182;21.156;2023-02-15T06:09:51;36.80;;;19.10;;
16979;SDS011;42288;52.182;21.156;2023-02-15T06:12:16;32.10;;;18.23;;
16979;SDS011;42288;52.182;21.156;2023-02-15T06:14:42;32.07;;;18.03;;
16979;SDS011;42288;52.182;21.156;2023-02-15T06:17:07;39.37;;;19.37;;
16979;SDS011;42288;52.182;21.156;2023-02-15T06:19:33;33.50;;;19.13;;
16979;SDS011;42288;52.182;21.156;2023-02-15T06:21:58;37.87;;;18.93;;
16979;SDS011;42288;52.182;21.156;2023-02-15T06:24:24;39.63;;;21.70;;
16979;SDS011;42288;52.182;21.156;2023-02-15T06:26:50;31.37;;;17.03;;
16979;SDS011;42288;52.182;21.156;2023-02-15T06:29:16;36.87;;;18.80;;
16979;SDS011;42288;52.182;21.156;2023-02-15T06:31:41;33.57;;;17.57;;
16979;SDS011;42288;52.182;21.156;2023-02-15T06:34:07;32.30;;;18.33;;
16979;SDS011;42288;52.182;21.156;2023-02-15T06:36:32;37.00;;;19.33;;
16979;SDS011;42288;52.182;21.156;2023-02-15T06:38:58;40.27;;;19.17;;
16979;SDS011;42288;52.182;21.156;2023-02-15T06:41:24;35.20;;;19.27;;
16979;SDS011;42288;52.182;21.156;2023-02-15T06:43:49;36.27;;;20.20;;
16979;SDS011;42288;52.182;21.156;2023-02-15T06:46:15;39.87;;;22.20;;
16979;SDS011;42288;52.182;21.156;2023-02-15T06:48:41;39.23;;;20.93;;
16979;SDS011;42288;52.182;21.156;2023-02-15T06:51:07;35.17;;;18.93;;
16979;SDS011;42288;52.182;21.156;2023-02-15T06:53:33;34.40;;;17.43;;
16979;SDS011;42288;52.182;21.156;2023-02-15T06:56:05;34.17;;;18.03;;
16979;SDS011;42288;52.182;21.156;2023-02-15T06:58:34;35.97;;;18.70;;
16979;SDS011;42288;52.182;21.156;2023-02-15T07:01:03;33.40;;;17.73;;
16979;SDS011;42288;52.182;21.156;2023-02-15T07:03:29;37.57;;;18.80;;
16979;SDS011;42288;52.182;21.156;2023-02-15T07:05:56;32.30;;;16.47;;
16979;SDS011;42288;52.182;21.156;2023-02-15T07:08:24;39.53;;;18.33;;
16979;SDS011;42288;52.182;21.156;2023-02-15T07:10:50;34.23;;;17.80;;
16979;SDS011;42288;52.182;21.156;2023-02-15T07:13:17;34.30;;;18.10;;
16979;SDS011;42288;52.182;21.156;2023-02-15T07:15:43;34.53;;;18.73;;
16979;SDS011;42288;52.182;21.156;2023-02-15T07:18:09;32.97;;;16.93;;
16979;SDS011;42288;52.182;21.156;2023-02-15T07:20:35;30.37;;;16.13;;
16979;SDS011;42288;52.182;21.156;2023-02-15T07:23:02;29.57;;;16.37;;
16979;SDS011;42288;52.182;21.156;2023-02-15T07:25:28;34.37;;;19.20;;
16979;SDS011;42288;52.182;21.156;2023-02-15T07:27:57;33.77;;;17.23;;
16979;SDS011;42288;52.182;21.156;2023-02-15T07:30:23;39.27;;;18.70;;
16979;SDS011;42288;52.182;21.156;2023-02-15T07:32:49;31.47;;;17.50;;
16979;SDS011;42288;52.182;21.156;2023-02-15T07:35:34;34.43;;;18.90;;
16979;SDS011;42288;52.182;21.156;2023-02-15T07:38:00;35.10;;;17.60;;
16979;SDS011;42288;52.182;21.156;2023-02-15T07:40:26;40.90;;;20.37;;
16979;SDS011;42288;52.182;21.156;2023-02-15T07:42:51;43.23;;;19.23;;
16979;SDS011;42288;52.182;21.156;2023-02-15T07:45:19;41.10;;;19.83;;
16979;SDS011;42288;52.182;21.156;2023-02-15T07:47:45;35.40;;;19.43;;
16979;SDS011;42288;52.182;21.156;2023-02-15T07:50:11;38.60;;;19.83;;
16979;SDS011;42288;52.182;21.156;2023-02-15T07:52:37;40.73;;;20.40;;
16979;SDS011;42288;52.182;21.156;2023-02-15T07:55:02;39.97;;;20.07;;
16979;SDS011;42288;52.182;21.156;2023-02-15T07:57:28;44.73;;;21.57;;
16979;SDS011;42288;52.182;21.156;2023-02-15T07:59:54;54.93;;;23.63;;
16979;SDS011;42288;52.182;21.156;2023-02-15T08:02:19;46.67;;;22.23;;
16979;SDS011;42288;52.182;21.156;2023-02-15T08:04:45;46.83;;;24.03;;
16979;SDS011;42288;52.182;21.156;2023-02-15T08:07:10;44.50;;;21.13;;
16979;SDS011;42288;52.182;21.156;2023-02-15T08:09:36;42.07;;;22.40;;
16979;SDS011;42288;52.182;21.156;2023-02-15T08:12:01;40.53;;;20.23;;
16979;SDS011;42288;52.182;21.156;2023-02-15T08:14:27;40.03;;;20.50;;
16979;SDS011;42288;52.182;21.156;2023-02-15T08:16:54;38.27;;;18.77;;
16979;SDS011;42288;52.182;21.156;2023-02-15T08:19:21;41.03;;;20.23;;
16979;SDS011;42288;52.182;21.156;2023-02-15T08:21:50;45.70;;;21.10;;
16979;SDS011;42288;52.182;21.156;2023-02-15T08:24:25;44.77;;;22.30;;
16979;SDS011;42288;52.182;21.156;2023-02-15T08:26:52;44.57;;;21.43;;
16979;SDS011;42288;52.182;21.156;2023-02-15T08:29:19;40.17;;;20.57;;
16979;SDS011;42288;52.182;21.156;2023-02-15T08:31:47;37.50;;;18.10;;
16979;SDS011;42288;52.182;21.156;2023-02-15T08:34:15;36.33;;;19.17;;
16979;SDS011;42288;52.182;21.156;2023-02-15T08:36:42;39.40;;;19.63;;
16979;SDS011;42288;52.182;21.156;2023-02-15T08:39:10;42.83;;;19.30;;
16979;SDS011;42288;52.182;21.156;2023-02-15T08:41:37;34.80;;;18.20;;
16979;SDS011;42288;52.182;21.156;2023-02-15T08:44:04;38.70;;;15.03;;
16979;SDS011;42288;52.182;21.156;2023-02-15T08:46:33;36.50;;;16.23;;
16979;SDS011;42288;52.182;21.156;2023-02-15T08:49:00;32.03;;;15.83;;
16979;SDS011;42288;52.182;21.156;2023-02-15T08:51:27;29.53;;;14.67;;
16979;SDS011;42288;52.182;21.156;2023-02-15T08:53:55;31.23;;;15.03;;
16979;SDS011;42288;52.182;21.156;2023-02-15T08:56:24;29.70;;;15.23;;
16979;SDS011;42288;52.182;21.156;2023-02-15T08:58:55;30.70;;;14.50;;
16979;SDS011;42288;52.182;21.156;2023-02-15T09:01:22;28.17;;;13.67;;
16979;SDS011;42288;52.182;21.156;2023-02-15T09:03:57;26.27;;;14.10;;
16979;SDS011;42288;52.182;21.156;2023-02-15T09:06:24;25.80;;;13.07;;
16979;SDS011;42288;52.182;21.156;2023-02-15T09:08:51;29.37;;;14.37;;
16979;SDS011;42288;52.182;21.156;2023-02-15T09:11:18;26.43;;;13.50;;
16979;SDS011;42288;52.182;21.156;2023-02-15T09:13:52;27.30;;;14.50;;
16979;SDS011;42288;52.182;21.156;2023-02-15T09:16:19;28.97;;;14.13;;
16979;SDS011;42288;52.182;21.156;2023-02-15T09:18:45;28.97;;;14.53;;
16979;SDS011;42288;52.182;21.156;2023-02-15T09:21:15;34.07;;;15.40;;
16979;SDS011;42288;52.182;21.156;2023-02-15T09:23:43;35.33;;;17.67;;
16979;SDS011;42288;52.182;21.156;2023-02-15T09:26:14;35.23;;;17.07;;
16979;SDS011;42288;52.182;21.156;2023-02-15T09:28:41;39.87;;;18.80;;
16979;SDS011;42288;52.182;21.156;2023-02-15T09:31:07;40.30;;;19.17;;
16979;SDS011;42288;52.182;21.156;2023-02-15T09:33:38;35.10;;;17.30;;
16979;SDS011;42288;52.182;21.156;2023-02-15T09:36:05;37.40;;;17.23;;
16979;SDS011;42288;52.182;21.156;2023-02-15T09:38:38;33.33;;;16.83;;
16979;SDS011;42288;52.182;21.156;2023-02-15T09:47:03;35.43;;;16.67;;
16979;SDS011;42288;52.182;21.156;2023-02-15T09:52:33;33.50;;;15.93;;
16979;SDS011;42288;52.182;21.156;2023-02-15T10:17:15;39.37;;;17.63;;
16979;SDS011;42288;52.182;21.156;2023-02-15T10:24:48;35.70;;;16.27;;
16979;SDS011;42288;52.182;21.156;2023-02-15T10:27:36;36.00;;;16.67;;
16979;SDS011;42288;52.182;21.156;2023-02-15T10:30:10;34.77;;;15.07;;
16979;SDS011;42288;52.182;21.156;2023-02-15T10:32:39;37.60;;;16.33;;
16979;SDS011;42288;52.182;21.156;2023-02-15T10:43:41;39.13;;;19.40;;
16979;SDS011;42288;52.182;21.156;2023-02-15T10:46:17;38.10;;;16.90;;
16979;SDS011;42288;52.182;21.156;2023-02-15T10:59:53;34.43;;;15.87;;
16979;SDS011;42288;52.182;21.156;2023-02-15T11:02:40;31.80;;;15.63;;
16979;SDS011;42288;52.182;21.156;2023-02-15T11:07:51;27.87;;;14.03;;
16979;SDS011;42288;52.182;21.156;2023-02-15T11:10:41;34.83;;;15.80;;
16979;SDS011;42288;52.182;21.156;2023-02-15T11:13:11;31.93;;;15.97;;
16979;SDS011;42288;52.182;21.156;2023-02-15T11:15:43;33.27;;;15.03;;
16979;SDS011;42288;52.182;21.156;2023-02-15T11:18:28;33.33;;;15.03;;
16979;SDS011;42288;52.182;21.156;2023-02-15T11:24:10;33.60;;;16.53;;
16979;SDS011;42288;52.182;21.156;2023-02-15T11:27:12;35.43;;;15.27;;
16979;SDS011;42288;52.182;21.156;2023-02-15T11:29:34;30.50;;;13.63;;
16979;SDS011;42288;52.182;21.156;2023-02-15T11:34:55;31.23;;;15.40;;
16979;SDS011;42288;52.182;21.156;2023-02-15T11:37:36;31.07;;;14.23;;
16979;SDS011;42288;52.182;21.156;2023-02-15T11:40:06;31.37;;;15.30;;
16979;SDS011;42288;52.182;21.156;2023-02-15T11:43:07;36.83;;;17.07;;
16979;SDS011;42288;52.182;21.156;2023-02-15T11:45:42;34.00;;;16.43;;
16979;SDS011;42288;52.182;21.156;2023-02-15T11:48:14;27.70;;;15.20;;
16979;SDS011;42288;52.182;21.156;2023-02-15T11:50:41;30.93;;;15.30;;
16979;SDS011;42288;52.182;21.156;2023-02-15T11:55:42;31.90;;;14.77;;
16979;SDS011;42288;52.182;21.156;2023-02-15T12:03:54;37.33;;;16.83;;
16979;SDS011;42288;52.182;21.156;2023-02-15T12:06:46;34.73;;;15.30;;
16979;SDS011;42288;52.182;21.156;2023-02-15T12:14:47;34.33;;;16.23;;
16979;SDS011;42288;52.182;21.156;2023-02-15T12:17:15;32.07;;;15.60;;
16979;SDS011;42288;52.182;21.156;2023-02-15T12:19:42;36.50;;;17.97;;
16979;SDS011;42288;52.182;21.156;2023-02-15T12:22:18;33.20;;;15.83;;
16979;SDS011;42288;52.182;21.156;2023-02-15T12:24:47;38.20;;;17.30;;
16979;SDS011;42288;52.182;21.156;2023-02-15T12:27:17;42.07;;;19.20;;
16979;SDS011;42288;52.182;21.156;2023-02-15T12:29:59;45.27;;;17.97;;
16979;SDS011;42288;52.182;21.156;2023-02-15T12:32:31;40.27;;;17.97;;
16979;SDS011;42288;52.182;21.156;2023-02-15T12:35:01;41.90;;;18.60;;
16979;SDS011;42288;52.182;21.156;2023-02-15T12:37:33;39.77;;;19.60;;
16979;SDS011;42288;52.182;21.156;2023-02-15T12:39:59;41.20;;;19.27;;
16979;SDS011;42288;52.182;21.156;2023-02-15T12:42:28;38.83;;;18.00;;
16979;SDS011;42288;52.182;21.156;2023-02-15T12:45:49;41.83;;;20.67;;
16979;SDS011;42288;52.182;21.156;2023-02-15T12:50:39;39.57;;;18.20;;
16979;SDS011;42288;52.182;21.156;2023-02-15T12:55:49;41.50;;;18.93;;
16979;SDS011;42288;52.182;21.156;2023-02-15T12:58:25;44.43;;;20.00;;
16979;SDS011;42288;52.182;21.156;2023-02-15T13:04:00;46.50;;;21.03;;
16979;SDS011;42288;52.182;21.156;2023-02-15T13:06:28;41.17;;;18.23;;
16979;SDS011;42288;52.182;21.156;2023-02-15T13:09:11;47.37;;;21.87;;
16979;SDS011;42288;52.182;21.156;2023-02-15T13:11:39;50.50;;;22.83;;
16979;SDS011;42288;52.182;21.156;2023-02-15T13:14:28;46.13;;;20.50;;
16979;SDS011;42288;52.182;21.156;2023-02-15T13:16:57;50.80;;;21.60;;
16979;SDS011;42288;52.182;21.156;2023-02-15T13:19:37;44.87;;;21.93;;
16979;SDS011;42288;52.182;21.156;2023-02-15T13:22:16;49.63;;;21.07;;
16979;SDS011;42288;52.182;21.156;2023-02-15T13:24:57;45.17;;;20.30;;
16979;SDS011;42288;52.182;21.156;2023-02-15T13:27:30;42.73;;;19.50;;
16979;SDS011;42288;52.182;21.156;2023-02-15T13:30:02;45.20;;;19.00;;
16979;SDS011;42288;52.182;21.156;2023-02-15T13:32:38;47.93;;;21.77;;
16979;SDS011;42288;52.182;21.156;2023-02-15T13:35:06;44.30;;;21.73;;
16979;SDS011;42288;52.182;21.156;2023-02-15T13:40:32;43.70;;;20.47;;
16979;SDS011;42288;52.182;21.156;2023-02-15T13:43:05;45.80;;;21.50;;
16979;SDS011;42288;52.182;21.156;2023-02-15T13:51:48;44.90;;;21.07;;
16979;SDS011;42288;52.182;21.156;2023-02-15T13:54:33;41.63;;;19.37;;
16979;SDS011;42288;52.182;21.156;2023-02-15T13:57:32;53.30;;;23.33;;
16979;SDS011;42288;52.182;21.156;2023-02-15T14:03:19;51.30;;;23.40;;
16979;SDS011;42288;52.182;21.156;2023-02-15T14:06:09;47.93;;;21.33;;
16979;SDS011;42288;52.182;21.156;2023-02-15T14:11:13;44.90;;;20.60;;
16979;SDS011;42288;52.182;21.156;2023-02-15T14:19:34;46.33;;;22.57;;
16979;SDS011;42288;52.182;21.156;2023-02-15T14:27:54;55.63;;;25.13;;
16979;SDS011;42288;52.182;21.156;2023-02-15T14:30:23;51.50;;;23.13;;
16979;SDS011;42288;52.182;21.156;2023-02-15T14:33:02;59.83;;;26.20;;
16979;SDS011;42288;52.182;21.156;2023-02-15T14:35:37;54.33;;;25.00;;
16979;SDS011;42288;52.182;21.156;2023-02-15T14:38:09;62.30;;;27.03;;
16979;SDS011;42288;52.182;21.156;2023-02-15T14:56:41;61.40;;;26.57;;
16979;SDS011;42288;52.182;21.156;2023-02-15T15:02:16;56.80;;;24.73;;
16979;SDS011;42288;52.182;21.156;2023-02-15T15:04:58;52.13;;;23.13;;
16979;SDS011;42288;52.182;21.156;2023-02-15T15:07:42;53.70;;;21.23;;
16979;SDS011;42288;52.182;21.156;2023-02-15T15:12:42;52.43;;;22.33;;
16979;SDS011;42288;52.182;21.156;2023-02-15T15:15:13;52.90;;;23.43;;
16979;SDS011;42288;52.182;21.156;2023-02-15T15:17:52;62.10;;;27.33;;
16979;SDS011;42288;52.182;21.156;2023-02-15T15:20:41;64.03;;;27.03;;
16979;SDS011;42288;52.182;21.156;2023-02-15T15:28:10;53.43;;;22.77;;
16979;SDS011;42288;52.182;21.156;2023-02-15T15:34:15;57.37;;;24.70;;
16979;SDS011;42288;52.182;21.156;2023-02-15T15:37:23;61.77;;;25.30;;
16979;SDS011;42288;52.182;21.156;2023-02-15T15:47:54;47.53;;;20.87;;
16979;SDS011;42288;52.182;21.156;2023-02-15T15:50:24;49.27;;;22.20;;
16979;SDS011;42288;52.182;21.156;2023-02-15T15:52:51;53.97;;;22.93;;
16979;SDS011;42288;52.182;21.156;2023-02-15T15:55:20;55.67;;;23.57;;
16979;SDS011;42288;52.182;21.156;2023-02-15T15:57:58;53.10;;;23.90;;
16979;SDS011;42288;52.182;21.156;2023-02-15T16:00:33;52.03;;;22.50;;
16979;SDS011;42288;52.182;21.156;2023-02-15T16:03:28;46.47;;;21.33;;
16979;SDS011;42288;52.182;21.156;2023-02-15T16:05:54;47.27;;;21.60;;
16979;SDS011;42288;52.182;21.156;2023-02-15T16:11:00;42.27;;;19.63;;
16979;SDS011;42288;52.182;21.156;2023-02-15T16:13:53;45.53;;;20.83;;
16979;SDS011;42288;52.182;21.156;2023-02-15T16:16:20;47.27;;;20.53;;
16979;SDS011;42288;52.182;21.156;2023-02-15T16:18:48;43.17;;;19.20;;
16979;SDS011;42288;52.182;21.156;2023-02-15T16:21:17;46.53;;;19.27;;
16979;SDS011;42288;52.182;21.156;2023-02-15T16:29:42;47.50;;;21.07;;
16979;SDS011;42288;52.182;21.156;2023-02-15T16:32:23;50.20;;;22.67;;
16979;SDS011;42288;52.182;21.156;2023-02-15T16:34:57;48.57;;;21.47;;
16979;SDS011;42288;52.182;21.156;2023-02-15T16:37:25;50.13;;;22.13;;
16979;SDS011;42288;52.182;21.156;2023-02-15T16:39:53;50.67;;;22.80;;
16979;SDS011;42288;52.182;21.156;2023-02-15T16:42:20;53.97;;;24.93;;
16979;SDS011;42288;52.182;21.156;2023-02-15T16:44:59;44.57;;;19.43;;
16979;SDS011;42288;52.182;21.156;2023-02-15T16:47:31;48.43;;;22.40;;
16979;SDS011;42288;52.182;21.156;2023-02-15T16:50:01;50.57;;;22.90;;
16979;SDS011;42288;52.182;21.156;2023-02-15T16:52:28;49.13;;;22.77;;
16979;SDS011;42288;52.182;21.156;2023-02-15T16:55:02;50.20;;;24.60;;
16979;SDS011;42288;52.182;21.156;2023-02-15T16:57:32;46.30;;;21.23;;
16979;SDS011;42288;52.182;21.156;2023-02-15T17:00:07;55.00;;;24.83;;
16979;SDS011;42288;52.182;21.156;2023-02-15T17:02:52;51.43;;;24.07;;
16979;SDS011;42288;52.182;21.156;2023-02-15T17:11:17;64.97;;;30.20;;
16979;SDS011;42288;52.182;21.156;2023-02-15T17:16:50;60.43;;;27.67;;
16979;SDS011;42288;52.182;21.156;2023-02-15T17:19:28;68.60;;;29.93;;
16979;SDS011;42288;52.182;21.156;2023-02-15T17:22:00;63.33;;;27.83;;
16979;SDS011;42288;52.182;21.156;2023-02-15T17:24:37;121.73;;;59.50;;
16979;SDS011;42288;52.182;21.156;2023-02-15T17:27:17;65.23;;;30.13;;
16979;SDS011;42288;52.182;21.156;2023-02-15T17:29:46;72.07;;;32.63;;
16979;SDS011;42288;52.182;21.156;2023-02-15T17:32:32;78.90;;;36.50;;
16979;SDS011;42288;52.182;21.156;2023-02-15T17:35:05;59.87;;;27.37;;
16979;SDS011;42288;52.182;21.156;2023-02-15T17:37:46;61.00;;;26.87;;